createdAt,value
2022-09-26T00:01:34.526Z,98166.22
2022-09-26T00:04:05.366Z,98170.66
2022-09-26T00:06:33.494Z,98182.09
2022-09-26T00:09:01.481Z,98174.41
2022-09-26T00:11:31.303Z,98175.03
2022-09-26T00:14:01.116Z,98182.03
2022-09-26T00:16:29.209Z,98170.31
2022-09-26T00:18:58.759Z,98169.47
2022-09-26T00:21:29.369Z,98168.06
2022-09-26T00:23:58.330Z,98165.63
2022-09-26T00:26:26.991Z,98160.69
2022-09-26T00:28:55.680Z,98162.22
2022-09-26T00:31:25.220Z,98155.75
2022-09-26T00:33:53.368Z,98158.56
2022-09-26T00:36:26.879Z,98163.63
2022-09-26T00:39:06.249Z,98156.09
2022-09-26T00:41:34.343Z,98152.00
2022-09-26T00:44:02.637Z,98146.72
2022-09-26T00:46:32.225Z,98155.13
2022-09-26T00:49:06.738Z,98158.91
2022-09-26T00:51:36.173Z,98157.75
2022-09-26T00:54:05.193Z,98164.25
2022-09-26T00:56:36.104Z,98159.03
2022-09-26T00:59:06.218Z,98156.03
2022-09-26T01:01:35.145Z,98144.25
2022-09-26T01:04:03.584Z,98142.06
2022-09-26T01:06:32.471Z,98152.19
2022-09-26T01:09:01.783Z,98147.81
2022-09-26T01:11:31.512Z,98152.69
2022-09-26T01:14:00.896Z,98156.84
2022-09-26T01:16:28.972Z,98156.94
2022-09-26T01:18:57.005Z,98157.41
2022-09-26T01:21:46.036Z,98165.06
2022-09-26T01:24:27.446Z,98168.25
2022-09-26T01:27:03.644Z,98160.06
2022-09-26T01:30:02.023Z,98154.81
2022-09-26T01:32:51.787Z,98166.78
2022-09-26T01:35:27.427Z,98172.03
2022-09-26T01:38:01.057Z,98168.44
2022-09-26T01:40:32.518Z,98178.97
2022-09-26T01:43:06.743Z,98168.50
2022-09-26T01:45:40.925Z,98163.03
2022-09-26T01:48:16.756Z,98154.78
2022-09-26T01:50:51.316Z,98163.75
2022-09-26T01:53:21.831Z,98154.16
2022-09-26T01:55:55.678Z,98147.63
2022-09-26T01:58:26.612Z,98154.81
2022-09-26T02:00:58.338Z,98147.19
2022-09-26T02:03:29.339Z,98147.91
2022-09-26T02:05:59.171Z,98143.75
2022-09-26T02:08:29.625Z,98141.06
2022-09-26T02:11:02.193Z,98146.59
2022-09-26T02:13:32.588Z,98141.09
2022-09-26T02:16:03.426Z,98134.66
2022-09-26T02:18:35.560Z,98131.69
2022-09-26T02:21:08.792Z,98129.81
2022-09-26T02:23:36.925Z,98129.63
2022-09-26T02:26:05.042Z,98126.13
2022-09-26T02:28:33.087Z,98114.88
2022-09-26T02:31:03.839Z,98113.91
2022-09-26T02:33:33.245Z,98101.84
2022-09-26T02:36:02.289Z,98109.31
2022-09-26T02:38:33.728Z,98099.41
2022-09-26T02:41:29.575Z,98089.78
2022-09-26T02:44:03.913Z,98090.38
2022-09-26T02:46:39.689Z,98082.41
2022-09-26T02:49:16.143Z,98081.91
2022-09-26T02:51:59.490Z,98081.69
2022-09-26T02:54:40.949Z,98070.31
2022-09-26T02:57:14.869Z,98062.97
2022-09-26T02:59:50.139Z,98060.25
2022-09-26T03:02:21.514Z,98061.88
2022-09-26T03:05:12.241Z,98059.50
2022-09-26T03:07:43.837Z,98058.13
2022-09-26T03:10:13.903Z,98058.94
2022-09-26T03:12:45.961Z,98053.06
2022-09-26T03:15:14.970Z,98047.16
2022-09-26T03:17:44.920Z,98043.31
2022-09-26T03:20:17.704Z,98042.94
2022-09-26T03:22:48.377Z,98045.41
2022-09-26T03:25:18.425Z,98050.16
2022-09-26T03:27:54.283Z,98052.41
2022-09-26T03:30:24.912Z,98049.22
2022-09-26T03:33:13.659Z,98038.78
2022-09-26T03:35:43.006Z,98043.34
2022-09-26T03:38:14.240Z,98045.34
2022-09-26T03:40:48.290Z,98040.03
2022-09-26T03:43:49.520Z,98036.38
2022-09-26T03:46:18.152Z,98032.94
2022-09-26T03:48:46.435Z,98028.59
2022-09-26T03:51:16.247Z,98031.34
2022-09-26T03:53:45.939Z,98035.09
2022-09-26T03:56:17.997Z,98013.09
2022-09-26T03:58:46.396Z,98015.75
2022-09-26T04:01:18.406Z,98013.66
2022-09-26T04:03:50.545Z,98003.03
2022-09-26T04:06:22.817Z,97999.72
2022-09-26T04:08:52.310Z,97995.91
2022-09-26T04:11:21.639Z,97992.59
2022-09-26T04:13:52.535Z,97996.84
2022-09-26T04:16:23.616Z,97991.53
2022-09-26T04:18:57.848Z,97995.28
2022-09-26T04:21:29.600Z,97996.16
2022-09-26T04:23:59.311Z,97982.19
2022-09-26T04:26:28.159Z,97992.63
2022-09-26T04:28:57.489Z,97983.50
2022-09-26T04:31:39.374Z,97978.66
2022-09-26T04:34:13.040Z,97972.81
2022-09-26T04:36:43.630Z,97973.66
2022-09-26T04:39:11.834Z,97975.44
2022-09-26T04:41:39.817Z,97975.66
2022-09-26T04:44:07.835Z,97976.63
2022-09-26T04:46:35.809Z,97983.81
2022-09-26T04:49:04.159Z,97986.34
2022-09-26T04:51:32.665Z,97978.38
2022-09-26T04:54:02.307Z,97975.59
2022-09-26T04:56:34.340Z,97967.81
2022-09-26T04:59:02.425Z,97973.72
2022-09-26T05:01:42.253Z,97972.59
2022-09-26T05:04:17.869Z,97975.88
2022-09-26T05:06:45.894Z,97976.34
2022-09-26T05:09:26.857Z,97970.44
2022-09-26T05:12:07.159Z,97969.84
2022-09-26T05:14:36.307Z,97964.41
2022-09-26T05:17:05.989Z,97959.28
2022-09-26T05:19:34.572Z,97952.41
2022-09-26T05:22:21.286Z,97958.25
2022-09-26T05:25:08.692Z,97954.28
2022-09-26T05:27:38.230Z,97950.16
2022-09-26T05:30:07.193Z,97946.44
2022-09-26T05:32:35.178Z,97945.69
2022-09-26T05:35:06.429Z,97940.38
2022-09-26T05:37:39.637Z,97939.69
2022-09-26T05:40:27.691Z,97939.25
2022-09-26T05:43:00.836Z,97935.22
2022-09-26T05:45:31.753Z,97935.81
2022-09-26T05:48:02.796Z,97927.16
2022-09-26T05:50:30.952Z,97922.50
2022-09-26T05:52:59.014Z,97931.50
2022-09-26T05:55:29.048Z,97917.72
2022-09-26T05:58:18.899Z,97929.91
2022-09-26T06:01:25.319Z,97928.25
2022-09-26T06:04:02.766Z,97922.00
2022-09-26T06:06:31.337Z,97921.03
2022-09-26T06:09:10.268Z,97921.47
2022-09-26T06:12:11.841Z,97915.63
2022-09-26T06:14:46.752Z,97918.28
2022-09-26T06:17:15.150Z,97912.31
2022-09-26T06:19:44.384Z,97910.34
2022-09-26T06:22:12.404Z,97904.53
2022-09-26T06:24:40.572Z,97901.91
2022-09-26T06:27:13.502Z,97901.97
2022-09-26T06:29:44.187Z,97896.66
2022-09-26T06:32:12.195Z,97896.13
2022-09-26T06:35:02.944Z,97890.50
2022-09-26T06:37:48.983Z,97876.53
2022-09-26T06:40:17.123Z,97872.41
2022-09-26T06:42:48.909Z,97871.28
2022-09-26T06:45:26.891Z,97861.91
2022-09-26T06:48:09.959Z,97844.81
2022-09-26T06:51:00.052Z,97831.63
2022-09-26T06:53:30.921Z,97829.19
2022-09-26T06:56:00.130Z,97834.00
2022-09-26T06:58:29.808Z,97830.94
2022-09-26T07:01:02.793Z,97818.31
2022-09-26T07:03:45.690Z,97820.13
2022-09-26T07:06:33.019Z,97811.28
2022-09-26T07:09:12.534Z,97813.22
2022-09-26T07:12:16.179Z,97815.88
2022-09-26T07:14:50.100Z,97800.81
2022-09-26T07:17:29.504Z,97805.69
2022-09-26T07:20:10.865Z,97805.63
2022-09-26T07:23:05.489Z,97788.38
2022-09-26T07:25:34.026Z,97786.22
2022-09-26T07:28:04.573Z,97792.50
2022-09-26T07:30:39.335Z,97791.38
2022-09-26T07:33:13.433Z,97792.19
2022-09-26T07:35:50.147Z,97776.75
2022-09-26T07:38:18.286Z,97776.19
2022-09-26T07:40:47.113Z,97766.63
2022-09-26T07:43:20.212Z,97760.19
2022-09-26T07:46:10.406Z,97748.72
2022-09-26T07:48:57.448Z,97756.78
2022-09-26T07:51:44.141Z,97752.56
2022-09-26T07:54:17.939Z,97744.78
2022-09-26T07:57:06.679Z,97746.63
2022-09-26T08:00:01.409Z,97750.66
2022-09-26T08:03:09.159Z,97745.94
2022-09-26T08:05:39.195Z,97748.06
2022-09-26T08:08:14.552Z,97735.69
2022-09-26T08:11:04.040Z,97734.13
2022-09-26T08:13:51.187Z,97731.19
2022-09-26T08:16:41.384Z,97726.91
2022-09-26T08:19:17.467Z,97719.47
2022-09-26T08:21:46.324Z,97715.44
2022-09-26T08:24:14.720Z,97725.00
2022-09-26T08:26:55.662Z,97710.47
2022-09-26T08:29:27.852Z,97714.66
2022-09-26T08:31:58.294Z,97723.09
2022-09-26T08:34:27.792Z,97711.38
2022-09-26T08:37:18.685Z,97707.88
2022-09-26T08:40:16.231Z,97709.44
2022-09-26T08:43:07.338Z,97696.91
2022-09-26T08:46:11.229Z,97685.56
2022-09-26T08:48:55.238Z,97678.44
2022-09-26T08:51:30.744Z,97682.25
2022-09-26T08:54:04.164Z,97674.28
2022-09-26T08:56:36.540Z,97670.31
2022-09-26T08:59:06.463Z,97676.25
2022-09-26T09:01:39.382Z,97661.81
2022-09-26T09:04:32.181Z,97662.00
2022-09-26T09:07:06.412Z,97659.16
2022-09-26T09:09:34.910Z,97650.38
2022-09-26T09:12:34.244Z,97650.16
2022-09-26T09:15:32.339Z,97647.47
2022-09-26T09:18:29.123Z,97637.69
2022-09-26T09:21:27.776Z,97641.50
2022-09-26T09:24:19.328Z,97638.50
2022-09-26T09:29:49.631Z,97616.16
2022-09-26T09:32:52.828Z,97587.34
2022-09-26T09:35:38.302Z,97622.38
2022-09-26T09:38:24.398Z,97617.59
2022-09-26T09:41:32.483Z,97621.13
2022-09-26T09:44:02.185Z,97613.25
2022-09-26T09:46:35.919Z,97612.88
2022-09-26T09:49:15.466Z,97617.63
2022-09-26T09:51:49.300Z,97604.06
2022-09-26T09:54:23.953Z,97601.72
2022-09-26T09:56:59.168Z,97599.56
2022-09-26T09:59:47.584Z,97594.38
2022-09-26T10:02:20.966Z,97598.06
2022-09-26T10:04:56.490Z,97597.47
2022-09-26T10:07:27.575Z,97594.81
2022-09-26T10:10:20.119Z,97589.19
2022-09-26T10:13:31.515Z,97591.81
2022-09-26T10:16:33.295Z,97584.09
2022-09-26T10:19:06.977Z,97576.75
2022-09-26T10:21:40.523Z,97571.03
2022-09-26T10:24:22.330Z,97565.53
2022-09-26T10:26:51.402Z,97575.31
2022-09-26T10:29:41.185Z,97572.59
2022-09-26T10:32:09.779Z,97572.06
2022-09-26T10:34:40.347Z,97569.09
2022-09-26T10:37:23.072Z,97564.19
2022-09-26T10:40:14.449Z,97563.66
2022-09-26T10:42:43.326Z,97562.44
2022-09-26T10:45:17.469Z,97569.06
2022-09-26T10:48:12.880Z,97559.06
2022-09-26T10:51:00.461Z,97551.03
2022-09-26T10:53:45.448Z,97551.19
2022-09-26T10:56:16.876Z,97547.25
2022-09-26T10:58:47.058Z,97546.34
2022-09-26T11:01:22.341Z,97533.31
2022-09-26T11:03:50.804Z,97536.94
2022-09-26T11:06:26.901Z,97531.41
2022-09-26T11:09:03.300Z,97529.19
2022-09-26T11:11:54.150Z,97520.06
2022-09-26T11:14:28.265Z,97506.53
2022-09-26T11:17:03.789Z,97523.03
2022-09-26T11:19:36.291Z,97506.56
2022-09-26T11:22:08.387Z,97506.81
2022-09-26T11:24:45.541Z,97492.91
2022-09-26T11:27:20.725Z,97489.88
2022-09-26T11:29:55.575Z,97487.75
2022-09-26T11:32:28.955Z,97481.25
2022-09-26T11:35:01.354Z,97481.06
2022-09-26T11:37:40.177Z,97471.25
2022-09-26T11:40:17.953Z,97464.44
2022-09-26T11:42:54.849Z,97468.97
2022-09-26T11:45:27.271Z,97465.25
2022-09-26T11:48:38.911Z,97458.75
2022-09-26T11:51:36.853Z,97453.59
2022-09-26T11:54:16.063Z,97452.81
2022-09-26T11:56:50.890Z,97451.56
2022-09-26T11:59:28.771Z,97444.75
2022-09-26T12:02:04.447Z,97433.72
2022-09-26T12:04:45.106Z,97436.56
2022-09-26T12:07:17.464Z,97431.31
2022-09-26T12:09:56.180Z,97424.25
2022-09-26T12:12:29.376Z,97414.94
2022-09-26T12:15:08.792Z,97416.59
2022-09-26T12:17:41.814Z,97394.84
2022-09-26T12:20:20.970Z,97385.13
2022-09-26T12:22:56.013Z,97391.69
2022-09-26T12:25:31.151Z,97388.31
2022-09-26T12:28:10.147Z,97393.66
2022-09-26T12:30:43.659Z,97392.72
2022-09-26T12:33:23.408Z,97380.09
2022-09-26T12:35:54.694Z,97385.53
2022-09-26T12:38:35.584Z,97372.94
2022-09-26T12:41:14.119Z,97374.44
2022-09-26T12:43:56.139Z,97378.47
2022-09-26T12:46:39.220Z,97378.44
2022-09-26T12:49:28.350Z,97390.59
2022-09-26T12:52:02.302Z,97382.19
2022-09-26T12:54:40.233Z,97382.59
2022-09-26T12:57:17.166Z,97387.41
2022-09-26T12:59:52.615Z,97382.94
2022-09-26T13:02:32.367Z,97381.47
2022-09-26T13:05:10.033Z,97373.66
2022-09-26T13:07:47.230Z,97369.09
2022-09-26T13:10:27.789Z,97363.16
2022-09-26T13:13:04.028Z,97357.44
2022-09-26T13:15:35.304Z,97346.00
2022-09-26T13:18:06.226Z,97347.81
2022-09-26T13:20:38.478Z,97349.13
2022-09-26T13:23:11.655Z,97335.72
2022-09-26T13:25:49.384Z,97342.06
2022-09-26T13:28:21.616Z,97340.28
2022-09-26T13:30:51.882Z,97334.34
2022-09-26T13:33:22.248Z,97337.94
2022-09-26T13:35:52.536Z,97332.91
2022-09-26T13:38:39.064Z,97324.59
2022-09-26T13:41:15.093Z,97327.38
2022-09-26T13:43:58.014Z,97318.09
2022-09-26T13:46:30.942Z,97326.56
2022-09-26T13:49:03.976Z,97324.25
2022-09-26T13:51:40.118Z,97316.72
2022-09-26T13:54:17.514Z,97319.72
2022-09-26T13:56:49.393Z,97325.63
2022-09-26T13:59:26.192Z,97317.97
2022-09-26T14:02:13.535Z,97324.41
2022-09-26T14:04:41.627Z,97335.13
2022-09-26T14:07:33.234Z,97335.91
2022-09-26T14:10:10.264Z,97359.28
2022-09-26T14:12:53.842Z,97359.91
2022-09-26T14:15:24.016Z,97343.63
2022-09-26T14:18:08.163Z,97332.66
2022-09-26T14:20:53.331Z,97317.34
2022-09-26T14:23:35.220Z,97323.31
2022-09-26T14:26:07.565Z,97313.03
2022-09-26T14:28:38.456Z,97308.00
2022-09-26T14:31:19.478Z,97295.59
2022-09-26T14:33:47.699Z,97297.44
2022-09-26T14:36:19.337Z,97290.13
2022-09-26T14:38:48.173Z,97284.03
2022-09-26T14:41:19.153Z,97276.06
2022-09-26T14:43:52.557Z,97266.69
2022-09-26T14:46:24.416Z,97263.88
2022-09-26T14:48:58.112Z,97262.97
2022-09-26T14:51:28.662Z,97265.38
2022-09-26T14:54:00.436Z,97260.81
2022-09-26T14:56:37.269Z,97250.00
2022-09-26T14:59:24.133Z,97247.25
2022-09-26T15:01:54.476Z,97241.66
2022-09-26T15:04:24.902Z,97241.44
2022-09-26T15:06:55.420Z,97248.13
2022-09-26T15:09:25.141Z,97242.75
2022-09-26T15:11:58.245Z,97234.59
2022-09-26T15:14:32.048Z,97239.78
2022-09-26T15:17:02.209Z,97230.69
2022-09-26T15:19:34.489Z,97232.84
2022-09-26T15:22:04.028Z,97237.44
2022-09-26T15:24:33.402Z,97227.66
2022-09-26T15:27:08.117Z,97223.63
2022-09-26T15:29:36.972Z,97226.63
2022-09-26T15:32:06.845Z,97220.34
2022-09-26T15:34:36.607Z,97215.19
2022-09-26T15:37:10.475Z,97220.09
2022-09-26T15:39:41.255Z,97211.19
2022-09-26T15:42:37.553Z,97208.19
2022-09-26T15:45:17.575Z,97209.06
2022-09-26T15:47:47.493Z,97206.88
2022-09-26T15:50:17.317Z,97209.31
2022-09-26T15:52:47.649Z,97213.78
2022-09-26T15:55:18.088Z,97205.56
2022-09-26T15:57:49.550Z,97202.81
2022-09-26T16:00:18.887Z,97202.97
2022-09-26T16:02:48.661Z,97199.16
2022-09-26T16:05:17.201Z,97189.25
2022-09-26T16:07:48.588Z,97194.00
2022-09-26T16:10:25.091Z,97195.91
2022-09-26T16:12:53.526Z,97186.53
2022-09-26T16:15:22.884Z,97183.03
2022-09-26T16:17:53.436Z,97175.72
2022-09-26T16:20:26.473Z,97172.22
2022-09-26T16:23:00.412Z,97177.16
2022-09-26T16:25:36.136Z,97175.78
2022-09-26T16:28:32.110Z,97170.59
2022-09-26T16:31:10.349Z,97167.66
2022-09-26T16:33:40.751Z,97157.09
2022-09-26T16:36:16.050Z,97166.69
2022-09-26T16:38:44.319Z,97163.22
2022-09-26T16:41:36.180Z,97163.44
2022-09-26T16:44:26.263Z,97154.53
2022-09-26T16:47:02.565Z,97149.41
2022-09-26T16:49:34.523Z,97155.38
2022-09-26T16:52:20.171Z,97146.94
2022-09-26T16:54:48.660Z,97146.69
2022-09-26T16:57:19.411Z,97144.56
2022-09-26T16:59:47.513Z,97140.41
2022-09-26T17:02:15.044Z,97142.41
2022-09-26T17:04:44.564Z,97140.50
2022-09-26T17:07:13.695Z,97139.97
2022-09-26T17:09:42.711Z,97141.88
2022-09-26T17:12:15.834Z,97144.31
2022-09-26T17:14:45.173Z,97145.41
2022-09-26T17:17:16.089Z,97144.31
2022-09-26T17:19:47.683Z,97140.78
2022-09-26T17:22:16.297Z,97132.94
2022-09-26T17:24:44.732Z,97125.06
2022-09-26T17:27:14.404Z,97126.69
2022-09-26T17:29:44.423Z,97121.81
2022-09-26T17:32:15.839Z,97117.97
2022-09-26T17:34:51.617Z,97111.25
2022-09-26T17:37:21.901Z,97108.84
2022-09-26T17:39:49.997Z,97103.41
2022-09-26T17:42:18.051Z,97105.84
2022-09-26T17:44:48.176Z,97100.69
2022-09-26T17:47:17.068Z,97095.53
2022-09-26T17:49:48.180Z,97096.06
2022-09-26T17:52:24.546Z,97087.41
2022-09-26T17:54:57.202Z,97085.75
2022-09-26T17:57:27.751Z,97084.97
2022-09-26T17:59:55.882Z,97080.41
2022-09-26T18:02:25.557Z,97069.25
2022-09-26T18:04:55.280Z,97066.84
2022-09-26T18:07:24.982Z,97067.59
2022-09-26T18:09:53.153Z,97054.31
2022-09-26T18:12:23.872Z,97059.00
2022-09-26T18:14:52.660Z,97063.06
2022-09-26T18:17:21.866Z,97047.34
2022-09-26T18:19:50.639Z,97044.66
2022-09-26T18:22:19.874Z,97056.81
2022-09-26T18:24:50.723Z,97047.06
2022-09-26T18:27:18.955Z,97039.75
2022-09-26T18:29:48.396Z,97027.19
2022-09-26T18:32:21.588Z,97022.56
2022-09-26T18:34:49.695Z,97019.84
2022-09-26T18:37:18.116Z,97022.09
2022-09-26T18:39:49.664Z,97015.03
2022-09-26T18:42:24.442Z,97014.72
2022-09-26T18:45:00.049Z,97007.63
2022-09-26T18:47:28.213Z,97002.19
2022-09-26T18:49:56.504Z,97007.41
2022-09-26T18:52:25.067Z,97007.38
2022-09-26T18:55:13.678Z,97002.44
2022-09-26T18:58:00.828Z,97001.63
2022-09-26T19:00:29.361Z,97003.53
2022-09-26T19:02:58.069Z,97005.16
2022-09-26T19:05:26.992Z,97003.84
2022-09-26T19:07:55.108Z,96992.16
2022-09-26T19:10:23.775Z,96998.13
2022-09-26T19:12:53.329Z,96994.88
2022-09-26T19:15:21.438Z,96999.28
2022-09-26T19:17:50.582Z,96995.13
2022-09-26T19:20:20.723Z,96996.22
2022-09-26T19:22:53.811Z,96995.41
2022-09-26T19:25:22.038Z,97002.72
2022-09-26T19:27:52.827Z,96992.69
2022-09-26T19:30:22.716Z,96996.50
2022-09-26T19:32:51.963Z,96991.94
2022-09-26T19:35:22.596Z,96984.34
2022-09-26T19:37:50.788Z,96990.63
2022-09-26T19:40:20.004Z,96989.44
2022-09-26T19:42:48.186Z,96983.03
2022-09-26T19:45:17.058Z,96990.09
2022-09-26T19:47:47.777Z,96984.19
2022-09-26T19:50:18.985Z,96985.00
2022-09-26T19:52:47.596Z,96981.41
2022-09-26T19:55:16.155Z,96984.13
2022-09-26T19:57:44.853Z,96981.63
2022-09-26T20:00:13.750Z,96980.94
2022-09-26T20:02:42.347Z,96979.50
2022-09-26T20:05:16.505Z,96980.09
2022-09-26T20:07:44.554Z,96974.38
2022-09-26T20:10:16.973Z,96978.50
2022-09-26T20:12:45.366Z,96968.19
2022-09-26T20:15:14.089Z,96966.78
2022-09-26T20:17:44.155Z,96965.97
2022-09-26T20:20:16.063Z,96967.28
2022-09-26T20:22:46.177Z,96966.19
2022-09-26T20:25:15.733Z,96960.53
2022-09-26T20:27:44.236Z,96966.19
2022-09-26T20:30:36.844Z,96967.25
2022-09-26T20:33:06.092Z,96965.50
2022-09-26T20:35:36.706Z,96970.63
2022-09-26T20:38:07.801Z,96958.81
2022-09-26T20:40:36.937Z,96957.16
2022-09-26T20:43:37.679Z,96956.81
2022-09-26T20:46:09.657Z,96954.25
2022-09-26T20:48:38.125Z,96944.63
2022-09-26T20:51:07.708Z,96941.44
2022-09-26T20:53:37.164Z,96941.47
2022-09-26T20:56:07.027Z,96933.25
2022-09-26T20:58:35.094Z,96927.09
2022-09-26T21:01:03.286Z,96932.97
2022-09-26T21:03:31.598Z,96924.16
2022-09-26T21:05:59.702Z,96917.91
2022-09-26T21:08:28.829Z,96913.94
2022-09-26T21:10:59.546Z,96917.97
2022-09-26T21:13:27.655Z,96915.53
2022-09-26T21:15:57.793Z,96910.19
2022-09-26T21:18:26.727Z,96906.66
2022-09-26T21:20:55.053Z,96905.06
2022-09-26T21:23:42.339Z,96904.28
2022-09-26T21:26:16.937Z,96888.59
2022-09-26T21:28:45.178Z,96889.69
2022-09-26T21:31:26.940Z,96897.78
2022-09-26T21:33:55.290Z,96883.41
2022-09-26T21:36:24.888Z,96887.50
2022-09-26T21:38:54.124Z,96889.63
2022-09-26T21:41:25.765Z,96892.94
2022-09-26T21:43:55.579Z,96888.56
2022-09-26T21:46:26.953Z,96879.38
2022-09-26T21:48:55.476Z,96883.47
2022-09-26T21:51:25.694Z,96885.09
2022-09-26T21:53:56.221Z,96889.97
2022-09-26T21:56:27.111Z,96879.69
2022-09-26T21:58:57.327Z,96881.59
2022-09-26T22:02:41.344Z,96881.59
2022-09-26T22:05:13.309Z,96876.19
2022-09-26T22:07:41.525Z,96876.72
2022-09-26T22:10:12.087Z,96871.91
2022-09-26T22:12:40.396Z,96867.53
2022-09-26T22:15:09.180Z,96872.69
2022-09-26T22:17:37.236Z,96868.63
2022-09-26T22:20:07.081Z,96864.59
2022-09-26T22:22:35.258Z,96868.09
2022-09-26T22:25:04.295Z,96858.63
2022-09-26T22:27:32.539Z,96859.72
2022-09-26T22:30:00.573Z,96825.94
2022-09-26T22:32:28.644Z,96845.41
2022-09-26T22:34:56.707Z,96858.63
2022-09-26T22:37:26.236Z,96844.03
2022-09-26T22:39:54.743Z,96845.38
2022-09-26T22:42:23.212Z,96854.28
2022-09-26T22:44:53.455Z,96854.59
2022-09-26T22:47:21.573Z,96857.81
2022-09-26T22:49:49.596Z,96855.41
2022-09-26T22:52:17.686Z,96861.59
2022-09-26T22:54:48.028Z,96851.00
2022-09-26T22:57:16.608Z,96840.25
2022-09-26T22:59:47.278Z,96835.91
2022-09-26T23:02:15.357Z,96830.22
2022-09-26T23:04:49.039Z,96821.84
2022-09-26T23:07:18.354Z,96819.41
2022-09-26T23:09:47.791Z,96814.00
2022-09-26T23:12:18.942Z,96814.56
2022-09-26T23:14:47.040Z,96812.66
2022-09-26T23:17:15.192Z,96809.69
2022-09-26T23:19:43.851Z,96800.25
2022-09-26T23:22:11.907Z,96785.91
2022-09-26T23:24:40.038Z,96776.75
2022-09-26T23:27:09.453Z,96777.81
2022-09-26T23:29:37.901Z,96775.09
2022-09-26T23:32:05.970Z,96767.00
2022-09-26T23:34:34.402Z,96772.13
2022-09-26T23:37:02.429Z,96774.31
2022-09-26T23:39:30.492Z,96774.31
2022-09-26T23:41:58.767Z,96764.84
2022-09-26T23:44:32.211Z,96763.25
2022-09-26T23:47:02.538Z,96761.09
2022-09-26T23:49:30.662Z,96759.75
2022-09-26T23:51:58.779Z,96752.44
2022-09-26T23:54:27.218Z,96747.84
2022-09-26T23:56:55.264Z,96744.63
2022-09-26T23:59:23.488Z,96745.16
